createdAt,value
2019-03-17T00:00:01.095Z,18
2019-03-17T00:01:01.079Z,16
2019-03-17T00:02:01.080Z,15
2019-03-17T00:04:01.111Z,16
2019-03-17T00:06:07.826Z,15
2019-03-17T00:07:01.093Z,16
2019-03-17T00:08:01.085Z,15
2019-03-17T00:10:01.080Z,14
2019-03-17T00:11:01.081Z,16
2019-03-17T00:12:01.081Z,18
2019-03-17T00:13:01.084Z,19
2019-03-17T00:15:05.428Z,18
2019-03-17T00:16:01.080Z,17
2019-03-17T00:17:03.143Z,15
2019-03-17T00:18:01.084Z,14
2019-03-17T00:19:01.355Z,13
2019-03-17T00:20:01.106Z,14
2019-03-17T00:22:01.083Z,15
2019-03-17T00:23:01.086Z,16
2019-03-17T00:24:06.113Z,15
2019-03-17T00:25:08.819Z,16
2019-03-17T00:28:01.084Z,13
2019-03-17T00:29:01.082Z,15
2019-03-17T00:30:01.117Z,15
2019-03-17T00:32:01.084Z,17
2019-03-17T00:33:01.083Z,19
2019-03-17T00:34:01.082Z,18
2019-03-17T00:36:01.108Z,19
2019-03-17T00:41:01.105Z,18
2019-03-17T00:42:01.101Z,17
2019-03-17T00:44:01.106Z,18
2019-03-17T00:45:01.081Z,20
2019-03-17T00:46:01.086Z,21
2019-03-17T00:47:01.098Z,22
2019-03-17T00:48:01.157Z,21
2019-03-17T00:49:01.082Z,19
2019-03-17T00:51:01.083Z,17
2019-03-17T00:55:01.119Z,15
2019-03-17T00:56:01.083Z,14
2019-03-17T00:57:01.089Z,13
2019-03-17T00:59:01.109Z,15
2019-03-17T01:00:01.086Z,15
2019-03-17T01:01:06.083Z,17
2019-03-17T01:02:01.084Z,18
2019-03-17T01:04:06.083Z,15
2019-03-17T01:05:01.095Z,16
2019-03-17T01:07:01.087Z,18
2019-03-17T01:09:06.115Z,19
2019-03-17T01:10:01.088Z,20
2019-03-17T01:12:01.086Z,17
2019-03-17T01:14:01.096Z,16
2019-03-17T01:15:01.111Z,14
2019-03-17T01:18:01.117Z,15
2019-03-17T01:19:06.083Z,17
2019-03-17T01:20:01.092Z,18
2019-03-17T01:22:01.086Z,19
2019-03-17T01:23:01.086Z,18
2019-03-17T01:24:01.115Z,17
2019-03-17T01:25:02.052Z,19
2019-03-17T01:26:01.085Z,18
2019-03-17T01:27:01.086Z,17
2019-03-17T01:28:01.088Z,16
2019-03-17T01:29:01.111Z,15
2019-03-17T01:30:01.085Z,13
2019-03-17T01:31:01.089Z,12
2019-03-17T01:32:01.087Z,15
2019-03-17T01:33:01.086Z,17
2019-03-17T01:35:08.840Z,18
2019-03-17T01:36:01.085Z,20
2019-03-17T01:37:01.090Z,19
2019-03-17T01:38:01.089Z,17
2019-03-17T01:39:01.115Z,20
2019-03-17T01:40:01.087Z,19
2019-03-17T01:41:01.086Z,18
2019-03-17T01:42:01.089Z,17
2019-03-17T01:44:01.111Z,16
2019-03-17T01:45:01.086Z,18
2019-03-17T01:46:01.088Z,19
2019-03-17T01:48:01.113Z,18
2019-03-17T01:49:01.085Z,19
2019-03-17T01:52:02.117Z,20
2019-03-17T01:53:01.112Z,22
2019-03-17T01:55:02.034Z,20
2019-03-17T01:56:01.099Z,19
2019-03-17T01:57:01.086Z,18
2019-03-17T02:00:01.141Z,18
2019-03-17T02:01:01.096Z,20
2019-03-17T02:03:01.091Z,19
2019-03-17T02:04:01.094Z,18
2019-03-17T02:08:01.089Z,16
2019-03-17T02:10:01.088Z,17
2019-03-17T02:11:01.113Z,16
2019-03-17T02:12:01.091Z,14
2019-03-17T02:13:01.087Z,15
2019-03-17T02:15:01.089Z,14
2019-03-17T02:18:01.117Z,13
2019-03-17T02:19:01.086Z,14
2019-03-17T02:20:01.089Z,15
2019-03-17T02:21:01.087Z,16
2019-03-17T02:22:01.110Z,18
2019-03-17T02:24:01.088Z,16
2019-03-17T02:25:01.091Z,17
2019-03-17T02:28:01.115Z,18
2019-03-17T02:29:01.085Z,19
2019-03-17T02:30:01.103Z,17
2019-03-17T02:31:01.088Z,18
2019-03-17T02:32:01.113Z,17
2019-03-17T02:33:02.453Z,16
2019-03-17T02:34:01.118Z,15
2019-03-17T02:36:01.089Z,14
2019-03-17T02:37:01.121Z,16
2019-03-17T02:38:01.091Z,17
2019-03-17T02:39:01.091Z,18
2019-03-17T02:40:01.099Z,20
2019-03-17T02:42:02.117Z,17
2019-03-17T02:43:02.137Z,16
2019-03-17T02:44:01.087Z,17
2019-03-17T02:45:01.090Z,18
2019-03-17T02:46:02.894Z,20
2019-03-17T02:47:06.091Z,21
2019-03-17T02:48:01.118Z,20
2019-03-17T02:49:06.107Z,19
2019-03-17T02:51:01.090Z,16
2019-03-17T02:53:06.092Z,17
2019-03-17T02:54:01.091Z,16
2019-03-17T02:55:01.090Z,15
2019-03-17T02:56:06.094Z,16
2019-03-17T03:00:01.142Z,16
2019-03-17T03:01:01.092Z,15
2019-03-17T03:02:01.092Z,16
2019-03-17T03:03:01.129Z,17
2019-03-17T03:04:01.093Z,15
2019-03-17T03:06:01.090Z,17
2019-03-17T03:07:06.150Z,16
2019-03-17T03:09:01.099Z,17
2019-03-17T03:10:01.092Z,19
2019-03-17T03:11:01.092Z,17
2019-03-17T03:12:06.104Z,16
2019-03-17T03:14:01.097Z,17
2019-03-17T03:15:01.099Z,16
2019-03-17T03:16:06.389Z,17
2019-03-17T03:17:01.117Z,20
2019-03-17T03:20:01.090Z,19
2019-03-17T03:22:01.116Z,17
2019-03-17T03:23:06.093Z,16
2019-03-17T03:24:01.091Z,15
2019-03-17T03:26:01.235Z,13
2019-03-17T03:27:01.115Z,14
2019-03-17T03:30:01.092Z,14
2019-03-17T03:31:01.101Z,13
2019-03-17T03:35:01.125Z,14
2019-03-17T03:36:10.402Z,15
2019-03-17T03:37:01.091Z,14
2019-03-17T03:38:01.098Z,13
2019-03-17T03:40:01.092Z,14
2019-03-17T03:41:01.122Z,15
2019-03-17T03:42:01.093Z,17
2019-03-17T03:43:01.090Z,19
2019-03-17T03:44:01.092Z,18
2019-03-17T03:45:01.145Z,18
2019-03-17T03:46:01.115Z,17
2019-03-17T03:47:01.092Z,18
2019-03-17T03:50:01.099Z,20
2019-03-17T03:51:01.092Z,19
2019-03-17T03:52:01.091Z,17
2019-03-17T03:53:01.092Z,16
2019-03-17T03:54:01.093Z,15
2019-03-17T03:56:01.127Z,16
2019-03-17T03:58:01.094Z,15
2019-03-17T03:59:02.126Z,17
2019-03-17T04:00:06.109Z,17
2019-03-17T04:02:01.124Z,20
2019-03-17T04:05:06.112Z,19
2019-03-17T04:07:01.126Z,17
2019-03-17T04:09:06.096Z,15
2019-03-17T04:10:01.097Z,17
2019-03-17T04:12:01.126Z,16
2019-03-17T04:13:01.099Z,18
2019-03-17T04:15:01.095Z,17
2019-03-17T04:16:01.092Z,16
2019-03-17T04:17:01.130Z,17
2019-03-17T04:19:01.092Z,18
2019-03-17T04:20:06.096Z,19
2019-03-17T04:21:01.099Z,20
2019-03-17T04:22:01.125Z,18
2019-03-17T04:23:01.100Z,16
2019-03-17T04:25:02.191Z,15
2019-03-17T04:26:01.092Z,14
2019-03-17T04:27:01.089Z,16
2019-03-17T04:28:01.123Z,18
2019-03-17T04:29:01.091Z,17
2019-03-17T04:30:01.093Z,17
2019-03-17T04:32:01.092Z,16
2019-03-17T04:33:01.124Z,17
2019-03-17T04:35:01.091Z,16
2019-03-17T04:36:06.095Z,17
2019-03-17T04:39:01.124Z,18
2019-03-17T04:45:06.104Z,19
2019-03-17T04:46:01.094Z,20
2019-03-17T04:47:01.092Z,19
2019-03-17T04:49:06.122Z,20
2019-03-17T04:50:01.097Z,19
2019-03-17T04:51:01.094Z,17
2019-03-17T04:52:01.098Z,18
2019-03-17T04:55:06.107Z,19
2019-03-17T04:56:01.092Z,22
2019-03-17T04:57:02.128Z,20
2019-03-17T04:58:01.092Z,22
2019-03-17T04:59:01.092Z,21
2019-03-17T05:00:01.146Z,19
2019-03-17T05:01:01.090Z,17
2019-03-17T05:02:01.093Z,19
2019-03-17T05:03:01.095Z,17
2019-03-17T05:04:01.095Z,18
2019-03-17T05:05:01.120Z,19
2019-03-17T05:06:01.092Z,21
2019-03-17T05:07:01.094Z,19
2019-03-17T05:08:01.094Z,20
2019-03-17T05:09:01.097Z,17
2019-03-17T05:10:06.090Z,15
2019-03-17T05:11:01.093Z,14
2019-03-17T05:13:01.105Z,13
2019-03-17T05:14:01.093Z,14
2019-03-17T05:15:01.129Z,13
2019-03-17T05:16:01.100Z,15
2019-03-17T05:17:01.093Z,16
2019-03-17T05:18:01.111Z,17
2019-03-17T05:20:01.126Z,18
2019-03-17T05:21:02.123Z,17
2019-03-17T05:23:01.090Z,18
2019-03-17T05:24:01.091Z,20
2019-03-17T05:25:01.138Z,22
2019-03-17T05:26:01.096Z,21
2019-03-17T05:27:01.091Z,20
2019-03-17T05:28:01.090Z,19
2019-03-17T05:29:01.091Z,16
2019-03-17T05:30:01.126Z,14
2019-03-17T05:33:01.093Z,16
2019-03-17T05:34:06.110Z,18
2019-03-17T05:36:01.093Z,20
2019-03-17T05:37:06.359Z,23
2019-03-17T05:38:01.179Z,22
2019-03-17T05:39:01.092Z,21
2019-03-17T05:40:01.128Z,20
2019-03-17T05:41:01.093Z,18
2019-03-17T05:42:01.097Z,16
2019-03-17T05:43:01.099Z,15
2019-03-17T05:44:01.093Z,14
2019-03-17T05:45:06.097Z,15
2019-03-17T05:46:01.094Z,17
2019-03-17T05:47:01.100Z,16
2019-03-17T05:48:01.096Z,17
2019-03-17T05:49:01.096Z,18
2019-03-17T05:50:02.270Z,17
2019-03-17T05:51:01.106Z,16
2019-03-17T05:53:01.080Z,15
2019-03-17T05:54:01.047Z,16
2019-03-17T05:56:01.108Z,15
2019-03-17T05:57:01.083Z,16
2019-03-17T05:58:01.082Z,19
2019-03-17T05:59:01.106Z,17
2019-03-17T06:00:01.082Z,16
2019-03-17T06:01:01.083Z,18
2019-03-17T06:03:01.075Z,16
2019-03-17T06:05:01.081Z,17
2019-03-17T06:09:02.167Z,18
2019-03-17T06:11:01.083Z,17
2019-03-17T06:12:01.088Z,18
2019-03-17T06:13:01.086Z,19
2019-03-17T06:14:01.082Z,18
2019-03-17T06:15:01.083Z,17
2019-03-17T06:16:01.091Z,16
2019-03-17T06:18:01.084Z,17
2019-03-17T06:19:01.087Z,16
2019-03-17T06:20:01.083Z,18
2019-03-17T06:23:01.084Z,17
2019-03-17T06:24:01.090Z,18
2019-03-17T06:25:01.099Z,17
2019-03-17T06:27:01.084Z,16
2019-03-17T06:28:01.084Z,18
2019-03-17T06:29:01.090Z,17
2019-03-17T06:30:01.086Z,17
2019-03-17T06:31:01.087Z,19
2019-03-17T06:32:01.088Z,20
2019-03-17T06:33:01.084Z,19
2019-03-17T06:34:02.856Z,20
2019-03-17T06:35:02.114Z,19
2019-03-17T06:36:01.085Z,18
2019-03-17T06:37:01.086Z,17
2019-03-17T06:38:06.091Z,16
2019-03-17T06:39:01.091Z,15
2019-03-17T06:40:01.087Z,17
2019-03-17T06:42:01.087Z,19
2019-03-17T06:43:01.087Z,21
2019-03-17T06:44:01.086Z,20
2019-03-17T06:45:01.093Z,19
2019-03-17T06:46:01.092Z,21
2019-03-17T06:47:01.155Z,20
2019-03-17T06:48:01.086Z,19
2019-03-17T06:50:01.086Z,21
2019-03-17T06:53:01.150Z,22
2019-03-17T06:54:01.087Z,21
2019-03-17T06:56:06.087Z,20
2019-03-17T06:57:01.088Z,18
2019-03-17T06:58:01.150Z,17
2019-03-17T06:59:01.087Z,18
2019-03-17T07:00:01.088Z,16
2019-03-17T07:01:06.082Z,15
2019-03-17T07:02:01.119Z,14
2019-03-17T07:04:06.094Z,13
2019-03-17T07:05:01.122Z,15
2019-03-17T07:06:01.085Z,16
2019-03-17T07:07:01.087Z,17
2019-03-17T07:09:01.088Z,18
2019-03-17T07:10:01.109Z,19
2019-03-17T07:11:01.148Z,18
2019-03-17T07:12:06.081Z,19
2019-03-17T07:14:01.084Z,18
2019-03-17T07:15:01.114Z,18
2019-03-17T07:16:06.091Z,17
2019-03-17T07:20:01.109Z,16
2019-03-17T07:24:01.082Z,18
2019-03-17T07:26:01.084Z,17
2019-03-17T07:27:01.082Z,18
2019-03-17T07:28:01.087Z,17
2019-03-17T07:29:01.083Z,16
2019-03-17T07:30:01.108Z,15
2019-03-17T07:32:06.089Z,16
2019-03-17T07:33:01.087Z,14
2019-03-17T07:36:01.083Z,16
2019-03-17T07:38:01.082Z,18
2019-03-17T07:39:11.015Z,17
2019-03-17T07:40:06.117Z,19
2019-03-17T07:41:01.087Z,17
2019-03-17T07:43:01.085Z,15
2019-03-17T07:45:01.116Z,14
2019-03-17T07:46:01.088Z,16
2019-03-17T07:47:01.084Z,14
2019-03-17T07:48:01.087Z,15
2019-03-17T07:49:06.083Z,16
2019-03-17T07:50:01.121Z,15
2019-03-17T07:51:01.088Z,14
2019-03-17T07:52:01.089Z,16
2019-03-17T07:53:01.085Z,14
2019-03-17T07:54:06.101Z,12
2019-03-17T07:55:01.086Z,13
2019-03-17T07:56:01.095Z,16
2019-03-17T07:57:06.084Z,15
2019-03-17T07:58:06.090Z,16
2019-03-17T07:59:01.086Z,18
2019-03-17T08:00:01.088Z,17
2019-03-17T08:01:01.314Z,14
2019-03-17T08:02:01.111Z,13
2019-03-17T08:03:01.085Z,15
2019-03-17T08:05:01.121Z,16
2019-03-17T08:06:01.087Z,17
2019-03-17T08:07:01.092Z,19
2019-03-17T08:08:09.041Z,17
2019-03-17T08:09:01.093Z,14
2019-03-17T08:11:02.111Z,15
2019-03-17T08:12:01.090Z,13
2019-03-17T08:13:01.088Z,14
2019-03-17T08:14:01.092Z,16
2019-03-17T08:15:01.088Z,16
2019-03-17T08:16:01.088Z,15
2019-03-17T08:17:01.087Z,16
2019-03-17T08:18:01.087Z,17
2019-03-17T08:19:01.088Z,16
2019-03-17T08:20:01.086Z,19
2019-03-17T08:21:02.817Z,22
2019-03-17T08:23:01.087Z,20
2019-03-17T08:25:06.098Z,18
2019-03-17T08:26:01.087Z,16
2019-03-17T08:28:01.088Z,17
2019-03-17T08:30:01.099Z,18
2019-03-17T08:31:01.091Z,17
2019-03-17T08:33:01.119Z,16
2019-03-17T08:34:01.092Z,15
2019-03-17T08:35:01.088Z,14
2019-03-17T08:36:01.090Z,15
2019-03-17T08:37:01.087Z,16
2019-03-17T08:38:01.091Z,19
2019-03-17T08:39:02.117Z,18
2019-03-17T08:40:01.090Z,20
2019-03-17T08:41:01.090Z,17
2019-03-17T08:42:01.088Z,16
2019-03-17T08:43:01.090Z,13
2019-03-17T08:44:01.090Z,16
2019-03-17T08:45:06.099Z,14
2019-03-17T08:46:01.122Z,16
2019-03-17T08:47:01.090Z,17
2019-03-17T08:48:01.123Z,18
2019-03-17T08:49:01.090Z,16
2019-03-17T08:50:01.090Z,17
2019-03-17T08:51:06.088Z,16
2019-03-17T08:54:01.125Z,17
2019-03-17T08:55:01.091Z,16
2019-03-17T08:56:06.095Z,17
2019-03-17T08:57:01.093Z,18
2019-03-17T08:58:01.104Z,19
2019-03-17T09:00:01.129Z,20
2019-03-17T09:01:01.094Z,19
2019-03-17T09:03:01.119Z,15
2019-03-17T09:04:01.095Z,17
2019-03-17T09:05:01.126Z,16
2019-03-17T09:06:01.091Z,18
2019-03-17T09:07:01.094Z,16
2019-03-17T09:08:01.098Z,17
2019-03-17T09:09:01.092Z,15
2019-03-17T09:10:01.128Z,16
2019-03-17T09:11:01.095Z,15
2019-03-17T09:12:01.091Z,17
2019-03-17T09:14:01.092Z,19
2019-03-17T09:15:01.128Z,19
2019-03-17T09:16:01.668Z,20
2019-03-17T09:17:13.391Z,19
2019-03-17T09:18:01.092Z,20
2019-03-17T09:19:01.097Z,17
2019-03-17T09:20:01.148Z,16
2019-03-17T09:22:01.097Z,17
2019-03-17T09:23:01.098Z,15
2019-03-17T09:25:01.129Z,16
2019-03-17T09:26:01.095Z,15
2019-03-17T09:27:01.093Z,14
2019-03-17T09:28:01.093Z,15
2019-03-17T09:29:02.120Z,16
2019-03-17T09:30:01.131Z,17
2019-03-17T09:31:03.802Z,15
2019-03-17T09:33:01.095Z,14
2019-03-17T09:34:01.093Z,13
2019-03-17T09:35:01.123Z,12
2019-03-17T09:36:01.121Z,13
2019-03-17T09:37:01.094Z,15
2019-03-17T09:38:01.095Z,16
2019-03-17T09:39:01.092Z,18
2019-03-17T09:40:01.095Z,19
2019-03-17T09:44:01.095Z,18
2019-03-17T09:45:01.095Z,17
2019-03-17T09:46:01.118Z,18
2019-03-17T09:47:01.094Z,17
2019-03-17T09:48:01.095Z,18
2019-03-17T09:51:01.119Z,17
2019-03-17T09:57:01.106Z,16
2019-03-17T09:58:01.085Z,17
2019-03-17T10:00:01.116Z,18
2019-03-17T10:01:01.085Z,17
2019-03-17T10:02:01.087Z,16
2019-03-17T10:03:01.090Z,15
2019-03-17T10:06:01.082Z,16
2019-03-17T10:07:02.691Z,17
2019-03-17T10:08:06.084Z,19
2019-03-17T10:10:01.120Z,20
2019-03-17T10:11:01.084Z,21
2019-03-17T10:12:01.086Z,18
2019-03-17T10:13:01.083Z,17
2019-03-17T10:14:01.084Z,16
2019-03-17T10:15:01.114Z,15
2019-03-17T10:16:01.084Z,17
2019-03-17T10:21:01.088Z,15
2019-03-17T10:22:01.088Z,16
2019-03-17T10:23:01.087Z,17
2019-03-17T10:24:01.089Z,19
2019-03-17T10:25:01.139Z,20
2019-03-17T10:26:01.088Z,21
2019-03-17T10:27:01.091Z,20
2019-03-17T10:28:01.088Z,19
2019-03-17T10:29:01.089Z,18
2019-03-17T10:30:01.116Z,18
2019-03-17T10:31:01.090Z,17
2019-03-17T10:33:01.089Z,19
2019-03-17T10:34:06.093Z,18
2019-03-17T10:35:01.113Z,19
2019-03-17T10:39:11.837Z,18
2019-03-17T10:42:06.089Z,19
2019-03-17T10:43:01.089Z,16
2019-03-17T10:44:01.092Z,17
2019-03-17T10:45:01.121Z,17
2019-03-17T10:46:01.105Z,16
2019-03-17T10:47:06.087Z,15
2019-03-17T10:48:02.139Z,16
2019-03-17T10:50:01.118Z,15
2019-03-17T10:51:01.094Z,16
2019-03-17T10:52:01.107Z,18
2019-03-17T10:53:01.090Z,19
2019-03-17T10:54:01.088Z,18
2019-03-17T10:55:01.130Z,19
2019-03-17T10:56:01.089Z,18
2019-03-17T10:57:01.089Z,16
2019-03-17T10:58:01.089Z,14
2019-03-17T10:59:01.089Z,15
2019-03-17T11:00:01.090Z,15
2019-03-17T11:01:01.089Z,17
2019-03-17T11:02:06.090Z,20
2019-03-17T11:03:01.113Z,21
2019-03-17T11:04:01.090Z,22
2019-03-17T11:05:01.088Z,21
2019-03-17T11:06:07.179Z,20
2019-03-17T11:07:06.097Z,19
2019-03-17T11:08:08.661Z,20
2019-03-17T11:09:01.103Z,19
2019-03-17T11:10:06.130Z,18
2019-03-17T11:11:01.090Z,20
2019-03-17T11:12:01.092Z,19
2019-03-17T11:13:01.120Z,17
2019-03-17T11:14:01.095Z,18
2019-03-17T11:15:01.096Z,17
2019-03-17T11:18:01.118Z,18
2019-03-17T11:19:01.094Z,19
2019-03-17T11:20:06.092Z,22
2019-03-17T11:21:01.159Z,20
2019-03-17T11:24:01.158Z,18
2019-03-17T11:25:01.095Z,17
2019-03-17T11:28:01.117Z,18
2019-03-17T11:30:01.091Z,18
2019-03-17T11:31:01.101Z,17
2019-03-17T11:32:01.115Z,18
2019-03-17T11:33:01.091Z,15
2019-03-17T11:34:01.431Z,16
2019-03-17T11:35:01.093Z,17
2019-03-17T11:36:01.098Z,20
2019-03-17T11:37:01.119Z,19
2019-03-17T11:39:02.122Z,18
2019-03-17T11:40:01.094Z,17
2019-03-17T11:41:01.093Z,13
2019-03-17T11:43:01.182Z,14
2019-03-17T11:44:01.099Z,16
2019-03-17T11:45:01.095Z,15
2019-03-17T11:47:01.122Z,16
2019-03-17T11:49:01.094Z,15
2019-03-17T11:52:01.096Z,16
2019-03-17T11:53:06.096Z,18
2019-03-17T11:55:01.124Z,19
2019-03-17T11:57:01.101Z,17
2019-03-17T11:58:01.100Z,15
2019-03-17T11:59:01.095Z,17
2019-03-17T12:00:01.125Z,17
2019-03-17T12:01:01.124Z,16
2019-03-17T12:02:02.343Z,18
2019-03-17T12:04:01.225Z,17
2019-03-17T12:05:01.129Z,19
2019-03-17T12:07:01.080Z,22
2019-03-17T12:09:01.086Z,21
2019-03-17T12:10:01.085Z,20
2019-03-17T12:11:01.091Z,18
2019-03-17T12:12:01.084Z,15
2019-03-17T12:13:06.093Z,14
2019-03-17T12:14:01.085Z,15
2019-03-17T12:15:01.108Z,16
2019-03-17T12:17:01.085Z,15
2019-03-17T12:19:01.085Z,14
2019-03-17T12:20:01.111Z,13
2019-03-17T12:22:08.726Z,15
2019-03-17T12:23:01.088Z,14
2019-03-17T12:25:01.118Z,16
2019-03-17T12:26:01.150Z,17
2019-03-17T12:28:01.088Z,16
2019-03-17T12:30:01.085Z,13
2019-03-17T12:31:02.027Z,14
2019-03-17T12:32:01.100Z,16
2019-03-17T12:35:06.145Z,19
2019-03-17T12:36:01.085Z,16
2019-03-17T12:38:01.086Z,18
2019-03-17T12:39:01.088Z,19
2019-03-17T12:40:06.085Z,17
2019-03-17T12:44:01.152Z,16
2019-03-17T12:45:01.118Z,18
2019-03-17T12:46:01.092Z,17
2019-03-17T12:47:01.091Z,16
2019-03-17T12:49:01.096Z,17
2019-03-17T12:50:01.121Z,16
2019-03-17T12:51:01.090Z,17
2019-03-17T12:52:01.090Z,19
2019-03-17T12:53:01.094Z,18
2019-03-17T12:54:01.092Z,19
2019-03-17T12:55:01.120Z,18
2019-03-17T12:56:01.091Z,21
2019-03-17T12:57:02.123Z,19
2019-03-17T13:00:01.134Z,19
2019-03-17T13:01:01.091Z,18
2019-03-17T13:02:01.097Z,20
2019-03-17T13:03:01.098Z,21
2019-03-17T13:04:01.093Z,19
2019-03-17T13:05:01.130Z,18
2019-03-17T13:06:01.113Z,17
2019-03-17T13:08:01.098Z,16
2019-03-17T13:09:01.313Z,17
2019-03-17T13:10:01.118Z,16
2019-03-17T13:11:01.094Z,15
2019-03-17T13:12:01.095Z,14
2019-03-17T13:13:01.094Z,15
2019-03-17T13:15:01.120Z,16
2019-03-17T13:16:01.096Z,19
2019-03-17T13:17:01.103Z,20
2019-03-17T13:18:01.099Z,19
2019-03-17T13:19:01.113Z,20
2019-03-17T13:20:01.127Z,19
2019-03-17T13:21:02.009Z,18
2019-03-17T13:22:01.100Z,16
2019-03-17T13:23:01.100Z,15
2019-03-17T13:24:01.095Z,14
2019-03-17T13:26:01.122Z,15
2019-03-17T13:27:01.096Z,16
2019-03-17T13:28:01.095Z,17
2019-03-17T13:30:01.124Z,18
2019-03-17T13:31:01.096Z,17
2019-03-17T13:34:01.160Z,18
2019-03-17T13:36:01.128Z,19
2019-03-17T13:37:01.099Z,20
2019-03-17T13:39:01.103Z,19
2019-03-17T13:40:01.131Z,18
2019-03-17T13:45:01.127Z,18
2019-03-17T13:46:01.101Z,17
2019-03-17T13:48:01.122Z,18
2019-03-17T13:50:02.303Z,16
2019-03-17T13:52:01.080Z,15
2019-03-17T13:54:01.169Z,13
2019-03-17T13:55:01.079Z,14
2019-03-17T13:56:01.161Z,16
2019-03-17T13:59:01.107Z,17
2019-03-17T14:00:01.098Z,18
2019-03-17T14:03:01.168Z,19
2019-03-17T14:04:01.081Z,18
2019-03-17T14:06:01.090Z,17
2019-03-17T14:09:06.079Z,15
2019-03-17T14:11:01.082Z,14
2019-03-17T14:12:02.191Z,15
2019-03-17T14:13:06.144Z,14
2019-03-17T14:14:01.081Z,17
2019-03-17T14:15:01.081Z,16
2019-03-17T14:16:01.082Z,17
2019-03-17T14:19:01.106Z,14
2019-03-17T14:20:01.217Z,15
2019-03-17T14:21:01.084Z,18
2019-03-17T14:22:01.083Z,16
2019-03-17T14:23:01.114Z,18
2019-03-17T14:26:01.084Z,14
2019-03-17T14:27:01.082Z,15
2019-03-17T14:28:01.108Z,16
2019-03-17T14:29:01.083Z,17
2019-03-17T14:30:01.082Z,16
2019-03-17T14:31:01.085Z,17
2019-03-17T14:35:01.149Z,18
2019-03-17T14:38:01.106Z,16
2019-03-17T14:39:01.081Z,15
2019-03-17T14:40:02.139Z,14
2019-03-17T14:41:01.083Z,13
2019-03-17T14:42:01.083Z,10
2019-03-17T14:43:02.112Z,12
2019-03-17T14:44:01.085Z,13
2019-03-17T14:45:01.090Z,17
2019-03-17T14:46:01.090Z,20
2019-03-17T14:47:01.084Z,23
2019-03-17T14:49:01.108Z,21
2019-03-17T14:50:01.085Z,20
2019-03-17T14:51:01.094Z,18
2019-03-17T14:54:01.187Z,17
2019-03-17T14:55:01.088Z,18
2019-03-17T14:56:01.086Z,17
2019-03-17T14:57:01.086Z,16
2019-03-17T15:00:01.101Z,16
2019-03-17T15:02:01.086Z,17
2019-03-17T15:03:01.110Z,16
2019-03-17T15:05:01.086Z,15
2019-03-17T15:07:01.086Z,14
2019-03-17T15:09:01.111Z,16
2019-03-17T15:11:05.525Z,15
2019-03-17T15:14:01.176Z,17
2019-03-17T15:15:01.086Z,17
2019-03-17T15:17:01.086Z,19
2019-03-17T15:18:01.124Z,20
2019-03-17T15:19:02.111Z,17
2019-03-17T15:21:01.089Z,18
2019-03-17T15:22:01.084Z,17
2019-03-17T15:25:01.153Z,18
2019-03-17T15:28:01.121Z,17
2019-03-17T15:29:01.086Z,18
2019-03-17T15:30:01.090Z,17
2019-03-17T15:32:01.086Z,18
2019-03-17T15:34:01.182Z,16
2019-03-17T15:35:01.086Z,18
2019-03-17T15:36:01.088Z,17
2019-03-17T15:37:01.088Z,16
2019-03-17T15:40:01.087Z,15
2019-03-17T15:41:01.087Z,17
2019-03-17T15:42:01.089Z,18
2019-03-17T15:44:01.156Z,19
2019-03-17T15:45:01.089Z,20
2019-03-17T15:46:01.089Z,18
2019-03-17T15:47:01.088Z,19
2019-03-17T15:48:03.943Z,18
2019-03-17T15:49:01.089Z,19
2019-03-17T15:50:01.089Z,18
2019-03-17T15:51:01.093Z,20
2019-03-17T15:54:01.154Z,18
2019-03-17T15:56:01.090Z,16
2019-03-17T15:57:01.091Z,14
2019-03-17T15:58:01.114Z,16
2019-03-17T15:59:01.095Z,18
2019-03-17T16:00:01.096Z,17
2019-03-17T16:02:01.089Z,18
2019-03-17T16:03:06.087Z,17
2019-03-17T16:04:06.090Z,15
2019-03-17T16:05:01.088Z,16
2019-03-17T16:07:01.089Z,17
2019-03-17T16:09:02.115Z,19
2019-03-17T16:10:01.088Z,20
2019-03-17T16:11:01.093Z,19
2019-03-17T16:12:01.087Z,18
2019-03-17T16:14:01.151Z,17
2019-03-17T16:15:01.088Z,17
2019-03-17T16:16:01.069Z,18
2019-03-17T16:17:01.088Z,19
2019-03-17T16:18:01.111Z,20
2019-03-17T16:19:01.090Z,19
2019-03-17T16:20:01.088Z,18
2019-03-17T16:22:01.086Z,16
2019-03-17T16:29:01.443Z,18
2019-03-17T16:30:01.090Z,19
2019-03-17T16:33:01.175Z,20
2019-03-17T16:34:01.110Z,17
2019-03-17T16:35:01.085Z,18
2019-03-17T16:36:01.085Z,17
2019-03-17T16:37:01.090Z,19
2019-03-17T16:38:01.110Z,18
2019-03-17T16:39:01.088Z,19
2019-03-17T16:40:01.086Z,18
2019-03-17T16:42:01.084Z,16
2019-03-17T16:44:01.084Z,14
2019-03-17T16:45:01.084Z,15
2019-03-17T16:46:01.083Z,17
2019-03-17T16:47:01.090Z,19
2019-03-17T16:48:01.086Z,18
2019-03-17T16:49:01.085Z,19
2019-03-17T16:51:02.449Z,17
2019-03-17T16:54:01.216Z,18
2019-03-17T16:55:06.099Z,17
2019-03-17T16:56:01.082Z,19
2019-03-17T16:58:01.083Z,18
2019-03-17T16:59:01.083Z,16
2019-03-17T17:00:01.099Z,18
2019-03-17T17:01:01.085Z,16
2019-03-17T17:04:01.084Z,17
2019-03-17T17:05:01.086Z,16
2019-03-17T17:08:01.117Z,17
2019-03-17T17:11:01.083Z,18
2019-03-17T17:12:01.085Z,17
2019-03-17T17:14:01.149Z,16
2019-03-17T17:15:01.117Z,17
2019-03-17T17:16:01.084Z,15
2019-03-17T17:18:01.085Z,13
2019-03-17T17:20:01.089Z,12
2019-03-17T17:21:01.087Z,14
2019-03-17T17:22:01.085Z,15
2019-03-17T17:23:01.110Z,17
2019-03-17T17:25:01.086Z,19
2019-03-17T17:26:01.088Z,18
2019-03-17T17:28:01.112Z,19
2019-03-17T17:30:01.086Z,19
2019-03-17T17:33:01.241Z,18
2019-03-17T17:35:01.090Z,17
2019-03-17T17:36:01.094Z,16
2019-03-17T17:39:01.089Z,19
2019-03-17T17:44:01.216Z,17
2019-03-17T17:45:01.093Z,18
2019-03-17T17:47:01.090Z,17
2019-03-17T17:48:01.114Z,19
2019-03-17T17:52:03.481Z,18
2019-03-17T17:53:01.122Z,17
2019-03-17T17:54:01.093Z,16
2019-03-17T17:55:01.093Z,15
2019-03-17T17:59:01.090Z,17
2019-03-17T18:00:01.100Z,17
2019-03-17T18:02:01.128Z,18
2019-03-17T18:03:01.088Z,17
2019-03-17T18:04:01.089Z,16
2019-03-17T18:05:01.089Z,17
2019-03-17T18:06:01.091Z,19
2019-03-17T18:07:01.123Z,17
2019-03-17T18:08:01.092Z,18
2019-03-17T18:09:01.091Z,19
2019-03-17T18:10:01.090Z,17
2019-03-17T18:14:01.218Z,15
2019-03-17T18:15:01.090Z,16
2019-03-17T18:16:01.090Z,14
2019-03-17T18:18:01.094Z,13
2019-03-17T18:19:01.089Z,14
2019-03-17T18:20:01.094Z,16
2019-03-17T18:22:01.092Z,17
2019-03-17T18:23:01.089Z,18
2019-03-17T18:25:01.089Z,17
2019-03-17T18:26:01.062Z,18
2019-03-17T18:28:06.092Z,16
2019-03-17T18:29:01.095Z,15
2019-03-17T18:30:01.090Z,16
2019-03-17T18:31:01.093Z,14
2019-03-17T18:33:01.180Z,16
2019-03-17T18:35:01.118Z,17
2019-03-17T18:36:01.109Z,18
2019-03-17T18:38:01.134Z,20
2019-03-17T18:40:01.090Z,18
2019-03-17T18:41:01.091Z,19
2019-03-17T18:42:01.093Z,20
2019-03-17T18:45:01.180Z,20
2019-03-17T18:46:01.093Z,19
2019-03-17T18:47:01.118Z,17
2019-03-17T18:48:01.097Z,16
2019-03-17T18:51:01.092Z,17
2019-03-17T18:54:01.247Z,18
2019-03-17T18:55:01.114Z,19
2019-03-17T18:57:01.118Z,21
2019-03-17T18:58:01.093Z,20
2019-03-17T18:59:01.096Z,19
2019-03-17T19:00:01.098Z,18
2019-03-17T19:02:01.125Z,19
2019-03-17T19:04:01.219Z,18
2019-03-17T19:05:01.091Z,20
2019-03-17T19:06:01.092Z,19
2019-03-17T19:07:01.124Z,17
2019-03-17T19:08:01.091Z,16
2019-03-17T19:10:01.096Z,15
2019-03-17T19:12:06.094Z,17
2019-03-17T19:13:03.733Z,16
2019-03-17T19:14:01.093Z,17
2019-03-17T19:15:01.102Z,18
2019-03-17T19:17:01.136Z,16
2019-03-17T19:18:01.095Z,18
2019-03-17T19:21:01.079Z,17
2019-03-17T19:22:01.079Z,18
2019-03-17T19:24:01.233Z,17
2019-03-17T19:25:01.081Z,16
2019-03-17T19:26:01.106Z,17
2019-03-17T19:27:01.081Z,16
2019-03-17T19:28:01.112Z,15
2019-03-17T19:30:01.080Z,15
2019-03-17T19:31:01.080Z,14
2019-03-17T19:34:01.169Z,15
2019-03-17T19:36:01.106Z,14
2019-03-17T19:37:01.086Z,16
2019-03-17T19:43:01.109Z,15
2019-03-17T19:44:01.080Z,14
2019-03-17T19:45:01.081Z,14
2019-03-17T19:46:01.108Z,15
2019-03-17T19:47:01.109Z,14
2019-03-17T19:48:01.081Z,15
2019-03-17T19:49:01.082Z,16
2019-03-17T19:50:01.082Z,18
2019-03-17T19:51:01.082Z,17
2019-03-17T19:52:01.204Z,19
2019-03-17T19:55:01.213Z,18
2019-03-17T19:56:01.207Z,19
2019-03-17T19:57:01.270Z,17
2019-03-17T19:58:06.088Z,16
2019-03-17T19:59:01.175Z,15
2019-03-17T20:00:01.086Z,16
2019-03-17T20:01:01.083Z,15
2019-03-17T20:03:01.172Z,16